sensor_id;sensor_type;location;lat;lon;timestamp;pressure;altitude;pressure_sealevel;temperature
65569;BMP180;52211;50.154;8.682;2023-11-21T00:00:15;99367.00;;;15.00
65569;BMP180;52211;50.154;8.682;2023-11-21T00:02:43;99362.00;;;15.00
65569;BMP180;52211;50.154;8.682;2023-11-21T00:05:16;99363.00;;;15.00
65569;BMP180;52211;50.154;8.682;2023-11-21T00:07:46;99372.00;;;15.00
65569;BMP180;52211;50.154;8.682;2023-11-21T00:10:13;99368.00;;;15.00
65569;BMP180;52211;50.154;8.682;2023-11-21T00:12:41;99366.00;;;15.10
65569;BMP180;52211;50.154;8.682;2023-11-21T00:15:11;99364.00;;;15.10
65569;BMP180;52211;50.154;8.682;2023-11-21T00:17:40;99363.00;;;15.10
65569;BMP180;52211;50.154;8.682;2023-11-21T00:20:12;99369.00;;;15.10
65569;BMP180;52211;50.154;8.682;2023-11-21T00:22:43;99363.00;;;15.10
65569;BMP180;52211;50.154;8.682;2023-11-21T00:25:11;99356.00;;;15.20
65569;BMP180;52211;50.154;8.682;2023-11-21T00:27:38;99360.00;;;15.20
65569;BMP180;52211;50.154;8.682;2023-11-21T00:30:10;99373.00;;;15.20
65569;BMP180;52211;50.154;8.682;2023-11-21T00:32:38;99359.00;;;15.20
65569;BMP180;52211;50.154;8.682;2023-11-21T00:35:11;99360.00;;;15.20
65569;BMP180;52211;50.154;8.682;2023-11-21T00:37:42;99376.00;;;15.20
65569;BMP180;52211;50.154;8.682;2023-11-21T00:40:15;99375.00;;;15.20
65569;BMP180;52211;50.154;8.682;2023-11-21T00:42:42;99368.00;;;15.20
65569;BMP180;52211;50.154;8.682;2023-11-21T00:45:13;99369.00;;;15.20
65569;BMP180;52211;50.154;8.682;2023-11-21T00:47:45;99368.00;;;15.20
65569;BMP180;52211;50.154;8.682;2023-11-21T00:50:14;99367.00;;;15.20
65569;BMP180;52211;50.154;8.682;2023-11-21T00:52:44;99366.00;;;15.20
65569;BMP180;52211;50.154;8.682;2023-11-21T00:55:16;99370.00;;;15.20
65569;BMP180;52211;50.154;8.682;2023-11-21T00:57:44;99367.00;;;15.20
65569;BMP180;52211;50.154;8.682;2023-11-21T01:00:15;99370.00;;;15.20
65569;BMP180;52211;50.154;8.682;2023-11-21T01:02:44;99369.00;;;15.20
65569;BMP180;52211;50.154;8.682;2023-11-21T01:05:14;99374.00;;;15.20
65569;BMP180;52211;50.154;8.682;2023-11-21T01:07:43;99383.00;;;15.20
65569;BMP180;52211;50.154;8.682;2023-11-21T01:10:10;99379.00;;;15.30
65569;BMP180;52211;50.154;8.682;2023-11-21T01:12:42;99382.00;;;15.30
65569;BMP180;52211;50.154;8.682;2023-11-21T01:15:12;99384.00;;;15.30
65569;BMP180;52211;50.154;8.682;2023-11-21T01:17:44;99389.00;;;15.30
65569;BMP180;52211;50.154;8.682;2023-11-21T01:20:14;99387.00;;;15.30
65569;BMP180;52211;50.154;8.682;2023-11-21T01:22:41;99394.00;;;15.30
65569;BMP180;52211;50.154;8.682;2023-11-21T01:25:14;99398.00;;;15.30
65569;BMP180;52211;50.154;8.682;2023-11-21T01:27:47;99397.00;;;15.30
65569;BMP180;52211;50.154;8.682;2023-11-21T01:30:17;99395.00;;;15.30
65569;BMP180;52211;50.154;8.682;2023-11-21T01:32:44;99397.00;;;15.30
65569;BMP180;52211;50.154;8.682;2023-11-21T01:35:13;99397.00;;;15.30
65569;BMP180;52211;50.154;8.682;2023-11-21T01:37:42;99397.00;;;15.30
65569;BMP180;52211;50.154;8.682;2023-11-21T01:40:12;99401.00;;;15.30
65569;BMP180;52211;50.154;8.682;2023-11-21T01:42:44;99402.00;;;15.30
65569;BMP180;52211;50.154;8.682;2023-11-21T01:45:16;99403.00;;;15.30
65569;BMP180;52211;50.154;8.682;2023-11-21T01:47:48;99396.00;;;15.30
65569;BMP180;52211;50.154;8.682;2023-11-21T01:50:22;99396.00;;;15.30
65569;BMP180;52211;50.154;8.682;2023-11-21T01:52:55;99401.00;;;15.30
65569;BMP180;52211;50.154;8.682;2023-11-21T01:55:25;99394.00;;;15.30
65569;BMP180;52211;50.154;8.682;2023-11-21T01:57:56;99393.00;;;15.30
65569;BMP180;52211;50.154;8.682;2023-11-21T02:00:26;99395.00;;;15.30
65569;BMP180;52211;50.154;8.682;2023-11-21T02:02:56;99394.00;;;15.30
65569;BMP180;52211;50.154;8.682;2023-11-21T02:05:29;99402.00;;;15.30
65569;BMP180;52211;50.154;8.682;2023-11-21T02:07:58;99404.00;;;15.30
65569;BMP180;52211;50.154;8.682;2023-11-21T02:10:27;99407.00;;;15.30
65569;BMP180;52211;50.154;8.682;2023-11-21T02:12:57;99408.00;;;15.30
65569;BMP180;52211;50.154;8.682;2023-11-21T02:15:30;99415.00;;;15.30
65569;BMP180;52211;50.154;8.682;2023-11-21T02:17:57;99413.00;;;15.30
65569;BMP180;52211;50.154;8.682;2023-11-21T02:20:27;99414.00;;;15.30
65569;BMP180;52211;50.154;8.682;2023-11-21T02:22:57;99414.00;;;15.30
65569;BMP180;52211;50.154;8.682;2023-11-21T02:25:33;99420.00;;;15.30
65569;BMP180;52211;50.154;8.682;2023-11-21T02:28:04;99417.00;;;15.30
65569;BMP180;52211;50.154;8.682;2023-11-21T02:30:35;99418.00;;;15.30
65569;BMP180;52211;50.154;8.682;2023-11-21T02:33:06;99415.00;;;15.30
65569;BMP180;52211;50.154;8.682;2023-11-21T02:35:36;99420.00;;;15.30
65569;BMP180;52211;50.154;8.682;2023-11-21T02:38:04;99416.00;;;15.30
65569;BMP180;52211;50.154;8.682;2023-11-21T02:40:33;99411.00;;;15.30
65569;BMP180;52211;50.154;8.682;2023-11-21T02:43:02;99408.00;;;15.30
65569;BMP180;52211;50.154;8.682;2023-11-21T02:45:32;99405.00;;;15.30
65569;BMP180;52211;50.154;8.682;2023-11-21T02:48:08;99412.00;;;15.30
65569;BMP180;52211;50.154;8.682;2023-11-21T02:50:37;99407.00;;;15.30
65569;BMP180;52211;50.154;8.682;2023-11-21T02:53:07;99409.00;;;15.30
65569;BMP180;52211;50.154;8.682;2023-11-21T02:55:38;99410.00;;;15.30
65569;BMP180;52211;50.154;8.682;2023-11-21T02:58:05;99405.00;;;15.20
65569;BMP180;52211;50.154;8.682;2023-11-21T03:00:33;99408.00;;;15.20
65569;BMP180;52211;50.154;8.682;2023-11-21T03:03:00;99404.00;;;15.20
65569;BMP180;52211;50.154;8.682;2023-11-21T03:05:36;99409.00;;;15.20
65569;BMP180;52211;50.154;8.682;2023-11-21T03:08:06;99411.00;;;15.20
65569;BMP180;52211;50.154;8.682;2023-11-21T03:10:35;99415.00;;;15.20
65569;BMP180;52211;50.154;8.682;2023-11-21T03:13:05;99414.00;;;15.20
65569;BMP180;52211;50.154;8.682;2023-11-21T03:15:32;99414.00;;;15.20
65569;BMP180;52211;50.154;8.682;2023-11-21T03:18:02;99408.00;;;15.20
65569;BMP180;52211;50.154;8.682;2023-11-21T03:20:31;99417.00;;;15.20
65569;BMP180;52211;50.154;8.682;2023-11-21T03:23:00;99413.00;;;15.30
65569;BMP180;52211;50.154;8.682;2023-11-21T03:25:29;99418.00;;;15.30
65569;BMP180;52211;50.154;8.682;2023-11-21T03:27:59;99424.00;;;15.30
65569;BMP180;52211;50.154;8.682;2023-11-21T03:30:31;99432.00;;;15.30
65569;BMP180;52211;50.154;8.682;2023-11-21T03:33:00;99431.00;;;15.30
65569;BMP180;52211;50.154;8.682;2023-11-21T03:35:30;99428.00;;;15.30
65569;BMP180;52211;50.154;8.682;2023-11-21T03:37:59;99426.00;;;15.30
65569;BMP180;52211;50.154;8.682;2023-11-21T03:40:29;99431.00;;;15.30
65569;BMP180;52211;50.154;8.682;2023-11-21T03:42:55;99438.00;;;15.20
65569;BMP180;52211;50.154;8.682;2023-11-21T03:45:22;99438.00;;;15.20
65569;BMP180;52211;50.154;8.682;2023-11-21T03:47:52;99444.00;;;15.30
65569;BMP180;52211;50.154;8.682;2023-11-21T03:50:21;99446.00;;;15.20
65569;BMP180;52211;50.154;8.682;2023-11-21T03:52:48;99445.00;;;15.20
65569;BMP180;52211;50.154;8.682;2023-11-21T03:55:20;99454.00;;;15.20
65569;BMP180;52211;50.154;8.682;2023-11-21T03:57:53;99454.00;;;15.20
65569;BMP180;52211;50.154;8.682;2023-11-21T04:00:20;99451.00;;;15.20
65569;BMP180;52211;50.154;8.682;2023-11-21T04:02:47;99462.00;;;15.20
65569;BMP180;52211;50.154;8.682;2023-11-21T04:05:22;99460.00;;;15.20
65569;BMP180;52211;50.154;8.682;2023-11-21T04:07:51;99464.00;;;15.20
65569;BMP180;52211;50.154;8.682;2023-11-21T04:10:21;99461.00;;;15.20
65569;BMP180;52211;50.154;8.682;2023-11-21T04:12:48;99456.00;;;15.10
65569;BMP180;52211;50.154;8.682;2023-11-21T04:15:17;99461.00;;;15.10
65569;BMP180;52211;50.154;8.682;2023-11-21T04:17:44;99468.00;;;15.10
65569;BMP180;52211;50.154;8.682;2023-11-21T04:20:18;99468.00;;;15.10
65569;BMP180;52211;50.154;8.682;2023-11-21T04:22:47;99475.00;;;15.10
65569;BMP180;52211;50.154;8.682;2023-11-21T04:25:15;99468.00;;;15.10
65569;BMP180;52211;50.154;8.682;2023-11-21T04:27:45;99470.00;;;15.10
65569;BMP180;52211;50.154;8.682;2023-11-21T04:30:13;99470.00;;;15.10
65569;BMP180;52211;50.154;8.682;2023-11-21T04:32:43;99474.00;;;15.10
65569;BMP180;52211;50.154;8.682;2023-11-21T04:35:10;99475.00;;;15.10
65569;BMP180;52211;50.154;8.682;2023-11-21T04:37:42;99489.00;;;15.10
65569;BMP180;52211;50.154;8.682;2023-11-21T04:40:14;99490.00;;;15.20
65569;BMP180;52211;50.154;8.682;2023-11-21T04:42:46;99496.00;;;15.20
65569;BMP180;52211;50.154;8.682;2023-11-21T04:45:15;99498.00;;;15.20
65569;BMP180;52211;50.154;8.682;2023-11-21T04:47:42;99500.00;;;15.20
65569;BMP180;52211;50.154;8.682;2023-11-21T04:50:10;99495.00;;;15.20
65569;BMP180;52211;50.154;8.682;2023-11-21T04:52:37;99498.00;;;15.20
65569;BMP180;52211;50.154;8.682;2023-11-21T04:55:07;99502.00;;;15.20
65569;BMP180;52211;50.154;8.682;2023-11-21T04:57:37;99503.00;;;15.20
65569;BMP180;52211;50.154;8.682;2023-11-21T05:00:08;99519.00;;;15.20
65569;BMP180;52211;50.154;8.682;2023-11-21T05:02:39;99516.00;;;15.20
65569;BMP180;52211;50.154;8.682;2023-11-21T05:05:13;99516.00;;;15.20
65569;BMP180;52211;50.154;8.682;2023-11-21T05:07:41;99517.00;;;15.20
65569;BMP180;52211;50.154;8.682;2023-11-21T05:10:09;99517.00;;;15.20
65569;BMP180;52211;50.154;8.682;2023-11-21T05:12:41;99516.00;;;15.10
65569;BMP180;52211;50.154;8.682;2023-11-21T05:15:09;99521.00;;;15.10
65569;BMP180;52211;50.154;8.682;2023-11-21T05:17:42;99526.00;;;15.10
65569;BMP180;52211;50.154;8.682;2023-11-21T05:20:14;99531.00;;;15.10
65569;BMP180;52211;50.154;8.682;2023-11-21T05:22:44;99536.00;;;15.10
65569;BMP180;52211;50.154;8.682;2023-11-21T05:25:14;99532.00;;;15.10
65569;BMP180;52211;50.154;8.682;2023-11-21T05:27:41;99539.00;;;15.10
65569;BMP180;52211;50.154;8.682;2023-11-21T05:30:08;99550.00;;;15.10
65569;BMP180;52211;50.154;8.682;2023-11-21T05:32:41;99548.00;;;15.10
65569;BMP180;52211;50.154;8.682;2023-11-21T05:35:13;99555.00;;;15.10
65569;BMP180;52211;50.154;8.682;2023-11-21T05:37:47;99553.00;;;15.10
65569;BMP180;52211;50.154;8.682;2023-11-21T05:40:17;99553.00;;;15.10
65569;BMP180;52211;50.154;8.682;2023-11-21T05:42:49;99551.00;;;15.10
65569;BMP180;52211;50.154;8.682;2023-11-21T05:45:21;99555.00;;;15.10
65569;BMP180;52211;50.154;8.682;2023-11-21T05:47:53;99563.00;;;15.10
65569;BMP180;52211;50.154;8.682;2023-11-21T05:50:22;99566.00;;;15.10
65569;BMP180;52211;50.154;8.682;2023-11-21T05:52:49;99571.00;;;15.10
65569;BMP180;52211;50.154;8.682;2023-11-21T05:55:23;99567.00;;;15.10
65569;BMP180;52211;50.154;8.682;2023-11-21T05:57:52;99566.00;;;15.10
65569;BMP180;52211;50.154;8.682;2023-11-21T06:00:20;99563.00;;;15.10
65569;BMP180;52211;50.154;8.682;2023-11-21T06:02:52;99571.00;;;15.10
65569;BMP180;52211;50.154;8.682;2023-11-21T06:05:25;99575.00;;;15.10
65569;BMP180;52211;50.154;8.682;2023-11-21T06:07:55;99576.00;;;15.10
65569;BMP180;52211;50.154;8.682;2023-11-21T06:10:26;99584.00;;;15.10
65569;BMP180;52211;50.154;8.682;2023-11-21T06:12:53;99576.00;;;15.10
65569;BMP180;52211;50.154;8.682;2023-11-21T06:15:20;99592.00;;;15.00
65569;BMP180;52211;50.154;8.682;2023-11-21T06:17:50;99591.00;;;15.00
65569;BMP180;52211;50.154;8.682;2023-11-21T06:20:22;99595.00;;;15.00
65569;BMP180;52211;50.154;8.682;2023-11-21T06:22:53;99598.00;;;15.00
65569;BMP180;52211;50.154;8.682;2023-11-21T06:25:23;99613.00;;;15.00
65569;BMP180;52211;50.154;8.682;2023-11-21T06:27:50;99609.00;;;15.00
65569;BMP180;52211;50.154;8.682;2023-11-21T06:30:21;99611.00;;;15.00
65569;BMP180;52211;50.154;8.682;2023-11-21T06:32:50;99615.00;;;15.00
65569;BMP180;52211;50.154;8.682;2023-11-21T06:35:20;99620.00;;;15.00
65569;BMP180;52211;50.154;8.682;2023-11-21T06:37:49;99625.00;;;14.90
65569;BMP180;52211;50.154;8.682;2023-11-21T06:40:19;99629.00;;;14.90
65569;BMP180;52211;50.154;8.682;2023-11-21T06:42:47;99630.00;;;14.90
65569;BMP180;52211;50.154;8.682;2023-11-21T06:45:19;99632.00;;;14.90
65569;BMP180;52211;50.154;8.682;2023-11-21T06:47:49;99631.00;;;14.90
65569;BMP180;52211;50.154;8.682;2023-11-21T06:50:17;99641.00;;;14.90
65569;BMP180;52211;50.154;8.682;2023-11-21T06:52:51;99652.00;;;14.90
65569;BMP180;52211;50.154;8.682;2023-11-21T06:55:20;99663.00;;;14.90
65569;BMP180;52211;50.154;8.682;2023-11-21T06:57:47;99659.00;;;14.90
65569;BMP180;52211;50.154;8.682;2023-11-21T07:00:16;99654.00;;;14.90
65569;BMP180;52211;50.154;8.682;2023-11-21T07:02:46;99659.00;;;14.90
65569;BMP180;52211;50.154;8.682;2023-11-21T07:05:17;99663.00;;;14.90
65569;BMP180;52211;50.154;8.682;2023-11-21T07:07:50;99672.00;;;14.80
65569;BMP180;52211;50.154;8.682;2023-11-21T07:10:19;99674.00;;;14.90
65569;BMP180;52211;50.154;8.682;2023-11-21T07:12:51;99679.00;;;14.90
65569;BMP180;52211;50.154;8.682;2023-11-21T07:15:20;99678.00;;;14.90
65569;BMP180;52211;50.154;8.682;2023-11-21T07:17:47;99683.00;;;14.90
65569;BMP180;52211;50.154;8.682;2023-11-21T07:20:17;99690.00;;;14.80
65569;BMP180;52211;50.154;8.682;2023-11-21T07:22:46;99695.00;;;14.80
65569;BMP180;52211;50.154;8.682;2023-11-21T07:25:14;99699.00;;;14.80
65569;BMP180;52211;50.154;8.682;2023-11-21T07:27:43;99709.00;;;14.80
65569;BMP180;52211;50.154;8.682;2023-11-21T07:30:13;99706.00;;;14.80
65569;BMP180;52211;50.154;8.682;2023-11-21T07:32:43;99704.00;;;14.80
65569;BMP180;52211;50.154;8.682;2023-11-21T07:35:13;99702.00;;;14.80
65569;BMP180;52211;50.154;8.682;2023-11-21T07:37:40;99710.00;;;14.80
65569;BMP180;52211;50.154;8.682;2023-11-21T07:40:08;99714.00;;;14.80
65569;BMP180;52211;50.154;8.682;2023-11-21T07:42:36;99713.00;;;14.80
65569;BMP180;52211;50.154;8.682;2023-11-21T07:45:05;99709.00;;;14.80
65569;BMP180;52211;50.154;8.682;2023-11-21T07:47:33;99719.00;;;14.80
65569;BMP180;52211;50.154;8.682;2023-11-21T07:50:03;99719.00;;;14.80
65569;BMP180;52211;50.154;8.682;2023-11-21T07:52:33;99722.00;;;14.80
65569;BMP180;52211;50.154;8.682;2023-11-21T07:55:02;99723.00;;;14.80
65569;BMP180;52211;50.154;8.682;2023-11-21T07:57:30;99723.00;;;14.80
65569;BMP180;52211;50.154;8.682;2023-11-21T07:59:59;99726.00;;;14.80
65569;BMP180;52211;50.154;8.682;2023-11-21T08:02:29;99734.00;;;14.80
65569;BMP180;52211;50.154;8.682;2023-11-21T08:04:58;99736.00;;;14.90
65569;BMP180;52211;50.154;8.682;2023-11-21T08:07:28;99744.00;;;14.90
65569;BMP180;52211;50.154;8.682;2023-11-21T08:09:55;99745.00;;;14.90
65569;BMP180;52211;50.154;8.682;2023-11-21T08:12:27;99745.00;;;14.90
65569;BMP180;52211;50.154;8.682;2023-11-21T08:14:54;99741.00;;;14.90
65569;BMP180;52211;50.154;8.682;2023-11-21T08:17:21;99742.00;;;14.90
65569;BMP180;52211;50.154;8.682;2023-11-21T08:19:50;99747.00;;;14.90
65569;BMP180;52211;50.154;8.682;2023-11-21T08:22:18;99749.00;;;14.90
65569;BMP180;52211;50.154;8.682;2023-11-21T08:24:45;99758.00;;;14.90
65569;BMP180;52211;50.154;8.682;2023-11-21T08:27:15;99764.00;;;14.90
65569;BMP180;52211;50.154;8.682;2023-11-21T08:29:43;99760.00;;;14.90
65569;BMP180;52211;50.154;8.682;2023-11-21T08:32:10;99761.00;;;14.90
65569;BMP180;52211;50.154;8.682;2023-11-21T08:34:44;99760.00;;;14.90
65569;BMP180;52211;50.154;8.682;2023-11-21T08:37:15;99769.00;;;14.90
65569;BMP180;52211;50.154;8.682;2023-11-21T08:39:45;99778.00;;;15.00
65569;BMP180;52211;50.154;8.682;2023-11-21T08:42:16;99777.00;;;15.00
65569;BMP180;52211;50.154;8.682;2023-11-21T08:44:45;99781.00;;;15.00
65569;BMP180;52211;50.154;8.682;2023-11-21T08:47:12;99777.00;;;15.00
65569;BMP180;52211;50.154;8.682;2023-11-21T08:49:41;99787.00;;;15.00
65569;BMP180;52211;50.154;8.682;2023-11-21T08:52:12;99792.00;;;15.00
65569;BMP180;52211;50.154;8.682;2023-11-21T08:54:39;99788.00;;;15.00
65569;BMP180;52211;50.154;8.682;2023-11-21T08:57:06;99792.00;;;15.00
65569;BMP180;52211;50.154;8.682;2023-11-21T08:59:35;99799.00;;;15.00
65569;BMP180;52211;50.154;8.682;2023-11-21T09:02:04;99803.00;;;15.00
65569;BMP180;52211;50.154;8.682;2023-11-21T09:04:37;99807.00;;;15.00
65569;BMP180;52211;50.154;8.682;2023-11-21T09:07:08;99807.00;;;15.10
65569;BMP180;52211;50.154;8.682;2023-11-21T09:09:37;99808.00;;;15.10
65569;BMP180;52211;50.154;8.682;2023-11-21T09:12:04;99817.00;;;15.10
65569;BMP180;52211;50.154;8.682;2023-11-21T09:14:33;99822.00;;;15.10
65569;BMP180;52211;50.154;8.682;2023-11-21T09:17:02;99823.00;;;15.10
65569;BMP180;52211;50.154;8.682;2023-11-21T09:19:31;99830.00;;;15.10
65569;BMP180;52211;50.154;8.682;2023-11-21T09:22:00;99829.00;;;15.10
65569;BMP180;52211;50.154;8.682;2023-11-21T09:24:27;99825.00;;;15.10
65569;BMP180;52211;50.154;8.682;2023-11-21T09:26:56;99834.00;;;15.10
65569;BMP180;52211;50.154;8.682;2023-11-21T09:29:29;99834.00;;;15.20
65569;BMP180;52211;50.154;8.682;2023-11-21T09:31:58;99842.00;;;15.20
65569;BMP180;52211;50.154;8.682;2023-11-21T09:34:30;99836.00;;;15.20
65569;BMP180;52211;50.154;8.682;2023-11-21T09:37:00;99837.00;;;15.10
65569;BMP180;52211;50.154;8.682;2023-11-21T09:39:33;99833.00;;;15.10
65569;BMP180;52211;50.154;8.682;2023-11-21T09:42:10;99840.00;;;15.10
65569;BMP180;52211;50.154;8.682;2023-11-21T09:45:05;99842.00;;;15.00
65569;BMP180;52211;50.154;8.682;2023-11-21T09:47:39;99851.00;;;15.00
65569;BMP180;52211;50.154;8.682;2023-11-21T09:50:09;99845.00;;;15.00
65569;BMP180;52211;50.154;8.682;2023-11-21T09:55:49;99858.00;;;15.00
65569;BMP180;52211;50.154;8.682;2023-11-21T09:58:20;99857.00;;;15.10
65569;BMP180;52211;50.154;8.682;2023-11-21T10:00:57;99864.00;;;15.10
65569;BMP180;52211;50.154;8.682;2023-11-21T10:03:26;99852.00;;;15.10
65569;BMP180;52211;50.154;8.682;2023-11-21T10:06:00;99864.00;;;15.10
65569;BMP180;52211;50.154;8.682;2023-11-21T10:08:30;99867.00;;;15.10
65569;BMP180;52211;50.154;8.682;2023-11-21T10:11:19;99857.00;;;15.20
65569;BMP180;52211;50.154;8.682;2023-11-21T10:13:47;99867.00;;;15.20
65569;BMP180;52211;50.154;8.682;2023-11-21T10:16:25;99876.00;;;15.30
65569;BMP180;52211;50.154;8.682;2023-11-21T10:18:54;99874.00;;;15.30
65569;BMP180;52211;50.154;8.682;2023-11-21T10:21:40;99875.00;;;15.40
65569;BMP180;52211;50.154;8.682;2023-11-21T10:24:07;99883.00;;;15.40
65569;BMP180;52211;50.154;8.682;2023-11-21T10:26:37;99881.00;;;15.50
65569;BMP180;52211;50.154;8.682;2023-11-21T10:29:21;99876.00;;;15.60
65569;BMP180;52211;50.154;8.682;2023-11-21T10:31:51;99889.00;;;15.60
65569;BMP180;52211;50.154;8.682;2023-11-21T10:34:21;99883.00;;;15.70
65569;BMP180;52211;50.154;8.682;2023-11-21T10:36:51;99884.00;;;15.80
65569;BMP180;52211;50.154;8.682;2023-11-21T10:39:21;99889.00;;;15.90
65569;BMP180;52211;50.154;8.682;2023-11-21T10:41:50;99886.00;;;16.00
65569;BMP180;52211;50.154;8.682;2023-11-21T10:44:20;99882.00;;;16.10
65569;BMP180;52211;50.154;8.682;2023-11-21T10:46:50;99879.00;;;16.10
65569;BMP180;52211;50.154;8.682;2023-11-21T10:49:20;99881.00;;;16.20
65569;BMP180;52211;50.154;8.682;2023-11-21T10:51:47;99881.00;;;16.30
65569;BMP180;52211;50.154;8.682;2023-11-21T10:54:24;99880.00;;;16.30
65569;BMP180;52211;50.154;8.682;2023-11-21T10:57:03;99875.00;;;16.40
65569;BMP180;52211;50.154;8.682;2023-11-21T10:59:35;99874.00;;;16.40
65569;BMP180;52211;50.154;8.682;2023-11-21T11:02:22;99877.00;;;16.40
65569;BMP180;52211;50.154;8.682;2023-11-21T11:04:55;99877.00;;;16.50
65569;BMP180;52211;50.154;8.682;2023-11-21T11:07:27;99879.00;;;16.60
65569;BMP180;52211;50.154;8.682;2023-11-21T11:10:00;99875.00;;;16.70
65569;BMP180;52211;50.154;8.682;2023-11-21T11:12:30;99878.00;;;16.90
65569;BMP180;52211;50.154;8.682;2023-11-21T11:15:01;99881.00;;;17.00
65569;BMP180;52211;50.154;8.682;2023-11-21T11:17:30;99883.00;;;17.10
65569;BMP180;52211;50.154;8.682;2023-11-21T11:20:00;99885.00;;;17.20
65569;BMP180;52211;50.154;8.682;2023-11-21T11:22:42;99884.00;;;17.30
65569;BMP180;52211;50.154;8.682;2023-11-21T11:25:38;99877.00;;;17.30
65569;BMP180;52211;50.154;8.682;2023-11-21T11:28:17;99876.00;;;17.40
65569;BMP180;52211;50.154;8.682;2023-11-21T11:33:59;99877.00;;;17.50
65569;BMP180;52211;50.154;8.682;2023-11-21T11:36:43;99879.00;;;17.60
65569;BMP180;52211;50.154;8.682;2023-11-21T11:39:30;99877.00;;;17.60
65569;BMP180;52211;50.154;8.682;2023-11-21T11:42:13;99882.00;;;17.60
65569;BMP180;52211;50.154;8.682;2023-11-21T11:47:32;99881.00;;;17.70
65569;BMP180;52211;50.154;8.682;2023-11-21T11:52:47;99882.00;;;17.80
65569;BMP180;52211;50.154;8.682;2023-11-21T11:55:23;99889.00;;;17.80
65569;BMP180;52211;50.154;8.682;2023-11-21T11:57:58;99883.00;;;17.80
65569;BMP180;52211;50.154;8.682;2023-11-21T12:03:00;99887.00;;;17.80
65569;BMP180;52211;50.154;8.682;2023-11-21T12:05:34;99892.00;;;17.80
65569;BMP180;52211;50.154;8.682;2023-11-21T12:08:11;99889.00;;;17.80
65569;BMP180;52211;50.154;8.682;2023-11-21T12:10:43;99890.00;;;17.80
65569;BMP180;52211;50.154;8.682;2023-11-21T12:13:15;99891.00;;;17.80
65569;BMP180;52211;50.154;8.682;2023-11-21T12:15:42;99896.00;;;17.80
65569;BMP180;52211;50.154;8.682;2023-11-21T12:18:16;99896.00;;;17.80
65569;BMP180;52211;50.154;8.682;2023-11-21T12:20:42;99898.00;;;17.80
65569;BMP180;52211;50.154;8.682;2023-11-21T12:23:13;99905.00;;;17.80
65569;BMP180;52211;50.154;8.682;2023-11-21T12:25:42;99907.00;;;17.80
65569;BMP180;52211;50.154;8.682;2023-11-21T12:28:09;99917.00;;;17.70
65569;BMP180;52211;50.154;8.682;2023-11-21T12:30:43;99905.00;;;17.60
65569;BMP180;52211;50.154;8.682;2023-11-21T12:33:15;99917.00;;;17.50
65569;BMP180;52211;50.154;8.682;2023-11-21T12:35:44;99918.00;;;17.40
65569;BMP180;52211;50.154;8.682;2023-11-21T12:38:11;99927.00;;;17.30
65569;BMP180;52211;50.154;8.682;2023-11-21T12:40:38;99924.00;;;17.20
65569;BMP180;52211;50.154;8.682;2023-11-21T12:43:08;99926.00;;;17.10
65569;BMP180;52211;50.154;8.682;2023-11-21T12:45:38;99929.00;;;17.00
65569;BMP180;52211;50.154;8.682;2023-11-21T12:48:06;99933.00;;;17.00
65569;BMP180;52211;50.154;8.682;2023-11-21T12:50:39;99937.00;;;16.90
65569;BMP180;52211;50.154;8.682;2023-11-21T12:53:12;99946.00;;;16.90
65569;BMP180;52211;50.154;8.682;2023-11-21T12:55:46;99951.00;;;16.90
65569;BMP180;52211;50.154;8.682;2023-11-21T12:58:20;99956.00;;;16.80
65569;BMP180;52211;50.154;8.682;2023-11-21T13:00:50;99949.00;;;16.80
65569;BMP180;52211;50.154;8.682;2023-11-21T13:03:21;99945.00;;;16.80
65569;BMP180;52211;50.154;8.682;2023-11-21T13:05:53;99943.00;;;16.80
65569;BMP180;52211;50.154;8.682;2023-11-21T13:08:25;99952.00;;;16.80
65569;BMP180;52211;50.154;8.682;2023-11-21T13:11:00;99946.00;;;16.70
65569;BMP180;52211;50.154;8.682;2023-11-21T13:13:30;99951.00;;;16.70
65569;BMP180;52211;50.154;8.682;2023-11-21T13:16:02;99950.00;;;16.70
65569;BMP180;52211;50.154;8.682;2023-11-21T13:18:35;99950.00;;;16.60
65569;BMP180;52211;50.154;8.682;2023-11-21T13:21:08;99953.00;;;16.60
65569;BMP180;52211;50.154;8.682;2023-11-21T13:23:42;99961.00;;;16.70
65569;BMP180;52211;50.154;8.682;2023-11-21T13:26:10;99962.00;;;16.70
65569;BMP180;52211;50.154;8.682;2023-11-21T13:28:40;99955.00;;;16.70
65569;BMP180;52211;50.154;8.682;2023-11-21T13:31:13;99968.00;;;16.80
65569;BMP180;52211;50.154;8.682;2023-11-21T13:33:53;99972.00;;;16.80
65569;BMP180;52211;50.154;8.682;2023-11-21T13:36:26;99968.00;;;16.80
65569;BMP180;52211;50.154;8.682;2023-11-21T13:38:57;99972.00;;;16.80
65569;BMP180;52211;50.154;8.682;2023-11-21T13:41:27;99981.00;;;16.80
65569;BMP180;52211;50.154;8.682;2023-11-21T13:43:57;99980.00;;;16.80
65569;BMP180;52211;50.154;8.682;2023-11-21T13:46:44;99982.00;;;16.80
65569;BMP180;52211;50.154;8.682;2023-11-21T13:49:12;99986.00;;;16.80
65569;BMP180;52211;50.154;8.682;2023-11-21T13:51:41;99996.00;;;16.80
65569;BMP180;52211;50.154;8.682;2023-11-21T13:54:11;99990.00;;;16.70
65569;BMP180;52211;50.154;8.682;2023-11-21T13:56:38;99997.00;;;16.70
65569;BMP180;52211;50.154;8.682;2023-11-21T13:59:13;99996.00;;;16.70
65569;BMP180;52211;50.154;8.682;2023-11-21T14:01:56;99997.00;;;16.70
65569;BMP180;52211;50.154;8.682;2023-11-21T14:04:27;99991.00;;;16.60
65569;BMP180;52211;50.154;8.682;2023-11-21T14:06:56;99992.00;;;16.60
65569;BMP180;52211;50.154;8.682;2023-11-21T14:09:33;100002.00;;;16.60
65569;BMP180;52211;50.154;8.682;2023-11-21T14:12:03;99997.00;;;16.60
65569;BMP180;52211;50.154;8.682;2023-11-21T14:14:35;100001.00;;;16.60
65569;BMP180;52211;50.154;8.682;2023-11-21T14:17:02;100004.00;;;16.50
65569;BMP180;52211;50.154;8.682;2023-11-21T14:19:34;100003.00;;;16.50
65569;BMP180;52211;50.154;8.682;2023-11-21T14:22:10;100002.00;;;16.50
65569;BMP180;52211;50.154;8.682;2023-11-21T14:24:41;99999.00;;;16.50
65569;BMP180;52211;50.154;8.682;2023-11-21T14:27:13;100000.00;;;16.40
65569;BMP180;52211;50.154;8.682;2023-11-21T14:29:41;100004.00;;;16.40
65569;BMP180;52211;50.154;8.682;2023-11-21T14:32:11;100018.00;;;16.40
65569;BMP180;52211;50.154;8.682;2023-11-21T14:34:39;100011.00;;;16.40
65569;BMP180;52211;50.154;8.682;2023-11-21T14:37:09;100018.00;;;16.40
65569;BMP180;52211;50.154;8.682;2023-11-21T14:39:40;100022.00;;;16.40
65569;BMP180;52211;50.154;8.682;2023-11-21T14:42:16;100031.00;;;16.40